Terminal Aerodrome Forecast
Issued by NWS

Home | Current Version | Previous Version | Text Only | Print | Product List | Glossary On
Versions: 1 2 3 4 5 6 7 8 9 10 11 12 13 14 15 16 17 18 19 20 21 22 23
000
FTUS43 KBIS 221600 AAC
TAFDIK
TAF AMD
KDIK 221644Z 2217/2312 05007KT P6SM BKN025 OVC045
      TEMPO 2217/2221 SCT025 BKN045
     FM222100 06010KT P6SM OVC050
     FM230600 06011KT 6SM SHRA OVC035=

USA.gov is the U.S. government's official web portal to all federal, state and local government web resources and services.